sensor_id;sensor_type;location;lat;lon;timestamp;P1;durP1;ratioP1;P2;durP2;ratioP2
22764;SDS011;11549;50.852;3.816;2023-08-01T00:00:59;8.65;;;4.53;;
22764;SDS011;11549;50.852;3.816;2023-08-01T00:03:27;10.10;;;4.78;;
22764;SDS011;11549;50.852;3.816;2023-08-01T00:05:55;9.23;;;4.63;;
22764;SDS011;11549;50.852;3.816;2023-08-01T00:08:24;9.18;;;4.65;;
22764;SDS011;11549;50.852;3.816;2023-08-01T00:10:52;8.63;;;4.70;;
22764;SDS011;11549;50.852;3.816;2023-08-01T00:13:20;8.60;;;4.95;;
22764;SDS011;11549;50.852;3.816;2023-08-01T00:15:50;11.60;;;5.30;;
22764;SDS011;11549;50.852;3.816;2023-08-01T00:18:33;12.05;;;5.43;;
22764;SDS011;11549;50.852;3.816;2023-08-01T00:21:02;11.13;;;5.50;;
22764;SDS011;11549;50.852;3.816;2023-08-01T00:23:31;12.25;;;5.43;;
22764;SDS011;11549;50.852;3.816;2023-08-01T00:26:00;10.55;;;5.53;;
22764;SDS011;11549;50.852;3.816;2023-08-01T00:28:29;10.88;;;5.00;;
22764;SDS011;11549;50.852;3.816;2023-08-01T00:31:05;10.68;;;5.65;;
22764;SDS011;11549;50.852;3.816;2023-08-01T00:33:35;10.50;;;6.25;;
22764;SDS011;11549;50.852;3.816;2023-08-01T00:36:04;11.70;;;6.30;;
22764;SDS011;11549;50.852;3.816;2023-08-01T00:38:36;13.70;;;5.63;;
22764;SDS011;11549;50.852;3.816;2023-08-01T00:41:04;11.68;;;5.75;;
22764;SDS011;11549;50.852;3.816;2023-08-01T00:43:32;11.85;;;6.40;;
22764;SDS011;11549;50.852;3.816;2023-08-01T00:46:02;10.43;;;5.53;;
22764;SDS011;11549;50.852;3.816;2023-08-01T00:48:33;10.98;;;6.28;;
22764;SDS011;11549;50.852;3.816;2023-08-01T00:51:03;12.75;;;6.25;;
22764;SDS011;11549;50.852;3.816;2023-08-01T00:53:33;12.68;;;5.85;;
22764;SDS011;11549;50.852;3.816;2023-08-01T00:56:02;12.38;;;6.38;;
22764;SDS011;11549;50.852;3.816;2023-08-01T00:58:31;11.90;;;6.45;;
22764;SDS011;11549;50.852;3.816;2023-08-01T01:01:00;14.25;;;7.00;;
22764;SDS011;11549;50.852;3.816;2023-08-01T01:03:31;10.68;;;6.75;;
22764;SDS011;11549;50.852;3.816;2023-08-01T01:06:01;10.30;;;6.90;;
22764;SDS011;11549;50.852;3.816;2023-08-01T01:08:37;12.77;;;6.95;;
22764;SDS011;11549;50.852;3.816;2023-08-01T01:11:05;13.02;;;6.88;;
22764;SDS011;11549;50.852;3.816;2023-08-01T01:13:34;12.25;;;7.13;;
22764;SDS011;11549;50.852;3.816;2023-08-01T01:16:02;13.32;;;7.18;;
22764;SDS011;11549;50.852;3.816;2023-08-01T01:18:33;13.52;;;7.18;;
22764;SDS011;11549;50.852;3.816;2023-08-01T01:21:02;14.68;;;7.60;;
22764;SDS011;11549;50.852;3.816;2023-08-01T01:23:31;15.32;;;7.20;;
22764;SDS011;11549;50.852;3.816;2023-08-01T01:26:01;13.27;;;7.55;;
22764;SDS011;11549;50.852;3.816;2023-08-01T01:28:31;14.90;;;7.63;;
22764;SDS011;11549;50.852;3.816;2023-08-01T01:31:01;15.85;;;8.23;;
22764;SDS011;11549;50.852;3.816;2023-08-01T01:33:30;14.73;;;8.18;;
22764;SDS011;11549;50.852;3.816;2023-08-01T01:36:00;13.80;;;7.13;;
22764;SDS011;11549;50.852;3.816;2023-08-01T01:38:30;16.05;;;8.15;;
22764;SDS011;11549;50.852;3.816;2023-08-01T01:40:59;13.30;;;7.30;;
22764;SDS011;11549;50.852;3.816;2023-08-01T01:43:27;14.18;;;7.65;;
22764;SDS011;11549;50.852;3.816;2023-08-01T01:45:56;15.55;;;7.72;;
22764;SDS011;11549;50.852;3.816;2023-08-01T01:48:24;14.00;;;8.07;;
22764;SDS011;11549;50.852;3.816;2023-08-01T01:50:52;11.65;;;7.00;;
22764;SDS011;11549;50.852;3.816;2023-08-01T01:53:22;16.00;;;7.93;;
22764;SDS011;11549;50.852;3.816;2023-08-01T01:55:51;16.23;;;7.53;;
22764;SDS011;11549;50.852;3.816;2023-08-01T01:58:19;18.08;;;9.07;;
22764;SDS011;11549;50.852;3.816;2023-08-01T02:00:48;18.70;;;8.70;;
22764;SDS011;11549;50.852;3.816;2023-08-01T02:03:17;23.70;;;9.25;;
22764;SDS011;11549;50.852;3.816;2023-08-01T02:05:45;19.20;;;9.30;;
22764;SDS011;11549;50.852;3.816;2023-08-01T02:08:13;22.23;;;9.15;;
22764;SDS011;11549;50.852;3.816;2023-08-01T02:10:43;20.90;;;9.45;;
22764;SDS011;11549;50.852;3.816;2023-08-01T02:13:11;20.80;;;9.48;;
22764;SDS011;11549;50.852;3.816;2023-08-01T02:15:39;21.33;;;9.38;;
22764;SDS011;11549;50.852;3.816;2023-08-01T02:18:08;21.95;;;9.32;;
22764;SDS011;11549;50.852;3.816;2023-08-01T02:20:36;18.02;;;9.70;;
22764;SDS011;11549;50.852;3.816;2023-08-01T02:23:04;20.30;;;9.65;;
22764;SDS011;11549;50.852;3.816;2023-08-01T02:25:37;19.80;;;9.43;;
22764;SDS011;11549;50.852;3.816;2023-08-01T02:28:07;20.30;;;9.25;;
22764;SDS011;11549;50.852;3.816;2023-08-01T02:30:36;20.08;;;8.98;;
22764;SDS011;11549;50.852;3.816;2023-08-01T02:33:05;20.50;;;9.77;;
22764;SDS011;11549;50.852;3.816;2023-08-01T02:35:33;26.73;;;10.80;;
22764;SDS011;11549;50.852;3.816;2023-08-01T02:38:01;23.00;;;9.80;;
22764;SDS011;11549;50.852;3.816;2023-08-01T02:40:30;19.10;;;9.35;;
22764;SDS011;11549;50.852;3.816;2023-08-01T02:42:58;21.08;;;10.75;;
22764;SDS011;11549;50.852;3.816;2023-08-01T02:45:28;23.33;;;10.48;;
22764;SDS011;11549;50.852;3.816;2023-08-01T02:47:56;20.15;;;9.63;;
22764;SDS011;11549;50.852;3.816;2023-08-01T02:50:25;19.77;;;9.90;;
22764;SDS011;11549;50.852;3.816;2023-08-01T02:52:53;23.77;;;9.88;;
22764;SDS011;11549;50.852;3.816;2023-08-01T02:55:21;27.88;;;11.23;;
22764;SDS011;11549;50.852;3.816;2023-08-01T02:57:50;18.92;;;10.27;;
22764;SDS011;11549;50.852;3.816;2023-08-01T03:00:19;22.48;;;11.32;;
22764;SDS011;11549;50.852;3.816;2023-08-01T03:02:48;23.80;;;11.02;;
22764;SDS011;11549;50.852;3.816;2023-08-01T03:05:16;22.38;;;11.02;;
22764;SDS011;11549;50.852;3.816;2023-08-01T03:07:45;27.42;;;10.85;;
22764;SDS011;11549;50.852;3.816;2023-08-01T03:10:13;22.85;;;10.30;;
22764;SDS011;11549;50.852;3.816;2023-08-01T03:13:01;26.65;;;10.77;;
22764;SDS011;11549;50.852;3.816;2023-08-01T03:15:29;19.65;;;10.55;;
22764;SDS011;11549;50.852;3.816;2023-08-01T03:17:59;23.38;;;10.93;;
22764;SDS011;11549;50.852;3.816;2023-08-01T03:20:27;24.23;;;11.38;;
22764;SDS011;11549;50.852;3.816;2023-08-01T03:22:56;27.10;;;11.15;;
22764;SDS011;11549;50.852;3.816;2023-08-01T03:25:24;24.35;;;9.55;;
22764;SDS011;11549;50.852;3.816;2023-08-01T03:27:53;21.95;;;10.15;;
22764;SDS011;11549;50.852;3.816;2023-08-01T03:30:21;25.08;;;9.82;;
22764;SDS011;11549;50.852;3.816;2023-08-01T03:32:50;23.10;;;9.30;;
22764;SDS011;11549;50.852;3.816;2023-08-01T03:35:20;19.75;;;9.73;;
22764;SDS011;11549;50.852;3.816;2023-08-01T03:37:50;24.08;;;10.18;;
22764;SDS011;11549;50.852;3.816;2023-08-01T03:40:18;20.27;;;10.18;;
22764;SDS011;11549;50.852;3.816;2023-08-01T03:42:47;21.77;;;9.98;;
22764;SDS011;11549;50.852;3.816;2023-08-01T03:45:16;21.55;;;10.13;;
22764;SDS011;11549;50.852;3.816;2023-08-01T03:47:44;23.20;;;9.98;;
22764;SDS011;11549;50.852;3.816;2023-08-01T03:50:12;20.73;;;9.45;;
22764;SDS011;11549;50.852;3.816;2023-08-01T03:52:42;21.15;;;8.82;;
22764;SDS011;11549;50.852;3.816;2023-08-01T03:55:11;21.80;;;9.43;;
22764;SDS011;11549;50.852;3.816;2023-08-01T03:57:40;22.02;;;9.88;;
22764;SDS011;11549;50.852;3.816;2023-08-01T04:00:09;22.88;;;9.63;;
22764;SDS011;11549;50.852;3.816;2023-08-01T04:02:40;25.27;;;9.95;;
22764;SDS011;11549;50.852;3.816;2023-08-01T04:05:13;25.57;;;9.53;;
22764;SDS011;11549;50.852;3.816;2023-08-01T04:07:42;22.88;;;9.70;;
22764;SDS011;11549;50.852;3.816;2023-08-01T04:10:10;22.83;;;9.35;;
22764;SDS011;11549;50.852;3.816;2023-08-01T04:12:39;23.73;;;9.65;;
22764;SDS011;11549;50.852;3.816;2023-08-01T04:15:09;18.98;;;9.20;;
22764;SDS011;11549;50.852;3.816;2023-08-01T04:17:37;25.42;;;9.27;;
22764;SDS011;11549;50.852;3.816;2023-08-01T04:20:06;23.92;;;9.00;;
22764;SDS011;11549;50.852;3.816;2023-08-01T04:22:34;24.95;;;9.10;;
22764;SDS011;11549;50.852;3.816;2023-08-01T04:25:05;19.88;;;8.65;;
22764;SDS011;11549;50.852;3.816;2023-08-01T04:27:34;20.50;;;8.70;;
22764;SDS011;11549;50.852;3.816;2023-08-01T04:30:02;18.15;;;9.27;;
22764;SDS011;11549;50.852;3.816;2023-08-01T04:32:31;23.13;;;9.50;;
22764;SDS011;11549;50.852;3.816;2023-08-01T04:34:59;23.55;;;9.07;;
22764;SDS011;11549;50.852;3.816;2023-08-01T04:37:27;19.20;;;8.65;;
22764;SDS011;11549;50.852;3.816;2023-08-01T04:39:56;21.42;;;9.18;;
22764;SDS011;11549;50.852;3.816;2023-08-01T04:42:25;22.67;;;8.70;;
22764;SDS011;11549;50.852;3.816;2023-08-01T04:44:55;21.65;;;8.95;;
22764;SDS011;11549;50.852;3.816;2023-08-01T04:47:26;22.70;;;8.88;;
22764;SDS011;11549;50.852;3.816;2023-08-01T04:49:55;19.73;;;9.10;;
22764;SDS011;11549;50.852;3.816;2023-08-01T04:52:25;20.35;;;9.23;;
22764;SDS011;11549;50.852;3.816;2023-08-01T04:54:56;19.38;;;8.68;;
22764;SDS011;11549;50.852;3.816;2023-08-01T04:57:25;19.45;;;8.48;;
22764;SDS011;11549;50.852;3.816;2023-08-01T04:59:53;18.95;;;7.88;;
22764;SDS011;11549;50.852;3.816;2023-08-01T05:02:22;19.15;;;8.63;;
22764;SDS011;11549;50.852;3.816;2023-08-01T05:04:51;21.83;;;8.55;;
22764;SDS011;11549;50.852;3.816;2023-08-01T05:07:19;19.98;;;8.13;;
22764;SDS011;11549;50.852;3.816;2023-08-01T05:09:48;18.55;;;8.07;;
22764;SDS011;11549;50.852;3.816;2023-08-01T05:12:16;19.15;;;8.30;;
22764;SDS011;11549;50.852;3.816;2023-08-01T05:14:45;21.08;;;8.85;;
22764;SDS011;11549;50.852;3.816;2023-08-01T05:17:14;18.75;;;8.15;;
22764;SDS011;11549;50.852;3.816;2023-08-01T05:19:42;20.92;;;7.80;;
22764;SDS011;11549;50.852;3.816;2023-08-01T05:22:10;22.10;;;7.97;;
22764;SDS011;11549;50.852;3.816;2023-08-01T05:24:39;18.40;;;7.68;;
22764;SDS011;11549;50.852;3.816;2023-08-01T05:27:07;19.65;;;7.40;;
22764;SDS011;11549;50.852;3.816;2023-08-01T05:29:35;16.35;;;7.13;;
22764;SDS011;11549;50.852;3.816;2023-08-01T05:32:06;16.70;;;7.47;;
22764;SDS011;11549;50.852;3.816;2023-08-01T05:34:34;17.67;;;7.20;;
22764;SDS011;11549;50.852;3.816;2023-08-01T05:37:02;18.42;;;7.25;;
22764;SDS011;11549;50.852;3.816;2023-08-01T05:39:31;19.48;;;7.75;;
22764;SDS011;11549;50.852;3.816;2023-08-01T05:42:00;18.90;;;7.68;;
22764;SDS011;11549;50.852;3.816;2023-08-01T05:44:28;19.23;;;7.15;;
22764;SDS011;11549;50.852;3.816;2023-08-01T05:46:57;18.88;;;7.28;;
22764;SDS011;11549;50.852;3.816;2023-08-01T05:49:26;17.23;;;6.93;;
22764;SDS011;11549;50.852;3.816;2023-08-01T05:51:55;16.38;;;7.20;;
22764;SDS011;11549;50.852;3.816;2023-08-01T05:54:24;18.63;;;7.30;;
22764;SDS011;11549;50.852;3.816;2023-08-01T05:56:53;21.83;;;7.88;;
22764;SDS011;11549;50.852;3.816;2023-08-01T05:59:22;15.60;;;7.20;;
22764;SDS011;11549;50.852;3.816;2023-08-01T06:01:50;20.08;;;7.38;;
22764;SDS011;11549;50.852;3.816;2023-08-01T06:04:19;18.35;;;7.00;;
22764;SDS011;11549;50.852;3.816;2023-08-01T06:06:49;17.80;;;7.95;;
22764;SDS011;11549;50.852;3.816;2023-08-01T06:09:17;19.15;;;7.80;;
22764;SDS011;11549;50.852;3.816;2023-08-01T06:11:49;18.10;;;7.85;;
22764;SDS011;11549;50.852;3.816;2023-08-01T06:14:18;17.95;;;7.28;;
22764;SDS011;11549;50.852;3.816;2023-08-01T06:16:46;19.10;;;7.57;;
22764;SDS011;11549;50.852;3.816;2023-08-01T06:19:15;16.48;;;6.75;;
22764;SDS011;11549;50.852;3.816;2023-08-01T06:21:43;17.88;;;7.30;;
22764;SDS011;11549;50.852;3.816;2023-08-01T06:24:13;18.88;;;7.30;;
22764;SDS011;11549;50.852;3.816;2023-08-01T06:26:41;16.50;;;6.63;;
22764;SDS011;11549;50.852;3.816;2023-08-01T06:29:09;17.20;;;6.72;;
22764;SDS011;11549;50.852;3.816;2023-08-01T06:31:38;14.75;;;6.32;;
22764;SDS011;11549;50.852;3.816;2023-08-01T06:34:06;15.32;;;6.30;;
22764;SDS011;11549;50.852;3.816;2023-08-01T06:36:34;16.08;;;6.25;;
22764;SDS011;11549;50.852;3.816;2023-08-01T06:39:03;14.35;;;5.85;;
22764;SDS011;11549;50.852;3.816;2023-08-01T06:41:32;14.55;;;5.93;;
22764;SDS011;11549;50.852;3.816;2023-08-01T06:44:01;14.85;;;5.75;;
22764;SDS011;11549;50.852;3.816;2023-08-01T06:46:29;14.18;;;5.68;;
22764;SDS011;11549;50.852;3.816;2023-08-01T06:48:58;16.48;;;5.47;;
22764;SDS011;11549;50.852;3.816;2023-08-01T06:51:26;14.55;;;5.25;;
22764;SDS011;11549;50.852;3.816;2023-08-01T06:53:54;13.18;;;5.70;;
22764;SDS011;11549;50.852;3.816;2023-08-01T06:56:23;17.27;;;5.75;;
22764;SDS011;11549;50.852;3.816;2023-08-01T06:58:52;17.63;;;5.60;;
22764;SDS011;11549;50.852;3.816;2023-08-01T07:01:21;16.55;;;5.93;;
22764;SDS011;11549;50.852;3.816;2023-08-01T07:03:49;15.45;;;5.95;;
22764;SDS011;11549;50.852;3.816;2023-08-01T07:06:19;15.98;;;6.07;;
22764;SDS011;11549;50.852;3.816;2023-08-01T07:08:47;14.95;;;6.30;;
22764;SDS011;11549;50.852;3.816;2023-08-01T07:11:15;16.50;;;5.68;;
22764;SDS011;11549;50.852;3.816;2023-08-01T07:13:45;15.10;;;5.97;;
22764;SDS011;11549;50.852;3.816;2023-08-01T07:16:15;16.20;;;6.25;;
22764;SDS011;11549;50.852;3.816;2023-08-01T07:18:43;13.65;;;5.80;;
22764;SDS011;11549;50.852;3.816;2023-08-01T07:21:12;16.80;;;6.35;;
22764;SDS011;11549;50.852;3.816;2023-08-01T07:23:40;15.95;;;5.60;;
22764;SDS011;11549;50.852;3.816;2023-08-01T07:26:08;18.02;;;5.57;;
22764;SDS011;11549;50.852;3.816;2023-08-01T07:28:37;15.65;;;5.40;;
22764;SDS011;11549;50.852;3.816;2023-08-01T07:31:06;16.77;;;5.40;;
22764;SDS011;11549;50.852;3.816;2023-08-01T07:33:36;16.90;;;5.28;;
22764;SDS011;11549;50.852;3.816;2023-08-01T07:36:05;13.85;;;5.18;;
22764;SDS011;11549;50.852;3.816;2023-08-01T07:38:33;16.77;;;5.57;;
22764;SDS011;11549;50.852;3.816;2023-08-01T07:41:02;15.23;;;5.03;;
22764;SDS011;11549;50.852;3.816;2023-08-01T07:43:31;14.70;;;5.43;;
22764;SDS011;11549;50.852;3.816;2023-08-01T07:45:59;15.68;;;5.97;;
22764;SDS011;11549;50.852;3.816;2023-08-01T07:48:28;13.93;;;5.65;;
22764;SDS011;11549;50.852;3.816;2023-08-01T07:50:58;16.23;;;5.43;;
22764;SDS011;11549;50.852;3.816;2023-08-01T07:53:26;11.35;;;5.20;;
22764;SDS011;11549;50.852;3.816;2023-08-01T07:55:55;12.88;;;5.20;;
22764;SDS011;11549;50.852;3.816;2023-08-01T07:58:24;15.63;;;5.25;;
22764;SDS011;11549;50.852;3.816;2023-08-01T08:00:52;11.77;;;4.70;;
22764;SDS011;11549;50.852;3.816;2023-08-01T08:03:20;12.02;;;3.95;;
22764;SDS011;11549;50.852;3.816;2023-08-01T08:05:50;8.27;;;3.75;;
22764;SDS011;11549;50.852;3.816;2023-08-01T08:08:20;13.50;;;4.43;;
22764;SDS011;11549;50.852;3.816;2023-08-01T08:10:48;11.23;;;4.22;;
22764;SDS011;11549;50.852;3.816;2023-08-01T08:13:15;12.57;;;4.00;;
22764;SDS011;11549;50.852;3.816;2023-08-01T08:15:44;12.40;;;4.32;;
22764;SDS011;11549;50.852;3.816;2023-08-01T08:18:12;9.68;;;3.70;;
22764;SDS011;11549;50.852;3.816;2023-08-01T08:20:43;8.15;;;3.50;;
22764;SDS011;11549;50.852;3.816;2023-08-01T08:23:12;12.40;;;3.58;;
22764;SDS011;11549;50.852;3.816;2023-08-01T08:25:42;14.52;;;3.72;;
22764;SDS011;11549;50.852;3.816;2023-08-01T08:28:13;11.43;;;3.63;;
22764;SDS011;11549;50.852;3.816;2023-08-01T08:30:42;10.00;;;3.35;;
22764;SDS011;11549;50.852;3.816;2023-08-01T08:33:17;7.78;;;2.83;;
22764;SDS011;11549;50.852;3.816;2023-08-01T08:35:47;8.90;;;3.00;;
22764;SDS011;11549;50.852;3.816;2023-08-01T08:38:16;7.75;;;2.70;;
22764;SDS011;11549;50.852;3.816;2023-08-01T08:40:57;7.35;;;2.63;;
22764;SDS011;11549;50.852;3.816;2023-08-01T08:43:33;9.68;;;3.20;;
22764;SDS011;11549;50.852;3.816;2023-08-01T08:46:02;7.35;;;3.30;;
22764;SDS011;11549;50.852;3.816;2023-08-01T08:48:32;8.02;;;3.28;;
22764;SDS011;11549;50.852;3.816;2023-08-01T08:51:01;7.78;;;3.50;;
22764;SDS011;11549;50.852;3.816;2023-08-01T08:53:30;10.05;;;3.45;;
22764;SDS011;11549;50.852;3.816;2023-08-01T08:56:01;11.05;;;4.22;;
22764;SDS011;11549;50.852;3.816;2023-08-01T08:58:31;10.18;;;4.15;;
22764;SDS011;11549;50.852;3.816;2023-08-01T09:01:00;8.82;;;3.30;;
22764;SDS011;11549;50.852;3.816;2023-08-01T09:03:30;8.60;;;3.65;;
22764;SDS011;11549;50.852;3.816;2023-08-01T09:05:59;8.52;;;3.45;;
22764;SDS011;11549;50.852;3.816;2023-08-01T09:08:32;8.38;;;3.20;;
22764;SDS011;11549;50.852;3.816;2023-08-01T09:11:05;6.78;;;3.10;;
22764;SDS011;11549;50.852;3.816;2023-08-01T09:13:33;9.38;;;3.35;;
22764;SDS011;11549;50.852;3.816;2023-08-01T09:16:02;7.05;;;3.30;;
22764;SDS011;11549;50.852;3.816;2023-08-01T09:18:34;10.30;;;3.40;;
22764;SDS011;11549;50.852;3.816;2023-08-01T09:21:02;7.35;;;3.10;;
22764;SDS011;11549;50.852;3.816;2023-08-01T09:23:30;11.07;;;3.45;;
22764;SDS011;11549;50.852;3.816;2023-08-01T09:25:59;10.02;;;2.80;;
22764;SDS011;11549;50.852;3.816;2023-08-01T09:28:28;10.75;;;3.20;;
22764;SDS011;11549;50.852;3.816;2023-08-01T09:30:57;8.98;;;3.35;;
22764;SDS011;11549;50.852;3.816;2023-08-01T09:33:25;9.95;;;3.10;;
22764;SDS011;11549;50.852;3.816;2023-08-01T09:35:54;9.45;;;2.80;;
22764;SDS011;11549;50.852;3.816;2023-08-01T09:38:22;8.18;;;2.60;;
22764;SDS011;11549;50.852;3.816;2023-08-01T09:40:52;5.90;;;2.58;;
22764;SDS011;11549;50.852;3.816;2023-08-01T09:43:20;10.90;;;2.50;;
22764;SDS011;11549;50.852;3.816;2023-08-01T09:45:50;6.75;;;2.42;;
22764;SDS011;11549;50.852;3.816;2023-08-01T09:48:23;9.05;;;2.58;;
22764;SDS011;11549;50.852;3.816;2023-08-01T09:51:03;6.63;;;2.42;;
22764;SDS011;11549;50.852;3.816;2023-08-01T09:53:36;6.93;;;2.47;;
22764;SDS011;11549;50.852;3.816;2023-08-01T09:56:15;6.22;;;2.08;;
22764;SDS011;11549;50.852;3.816;2023-08-01T09:58:47;8.55;;;2.45;;
22764;SDS011;11549;50.852;3.816;2023-08-01T10:01:18;7.45;;;2.33;;
22764;SDS011;11549;50.852;3.816;2023-08-01T10:03:48;8.38;;;2.22;;
22764;SDS011;11549;50.852;3.816;2023-08-01T10:06:18;6.47;;;2.00;;
22764;SDS011;11549;50.852;3.816;2023-08-01T10:08:48;6.00;;;2.17;;
22764;SDS011;11549;50.852;3.816;2023-08-01T10:11:18;9.27;;;2.28;;
22764;SDS011;11549;50.852;3.816;2023-08-01T10:13:47;9.40;;;2.67;;
22764;SDS011;11549;50.852;3.816;2023-08-01T10:16:15;7.50;;;2.08;;
22764;SDS011;11549;50.852;3.816;2023-08-01T10:18:45;7.82;;;2.15;;
22764;SDS011;11549;50.852;3.816;2023-08-01T10:21:15;7.45;;;2.03;;
22764;SDS011;11549;50.852;3.816;2023-08-01T10:23:45;7.10;;;1.90;;
22764;SDS011;11549;50.852;3.816;2023-08-01T10:26:14;7.80;;;2.30;;
22764;SDS011;11549;50.852;3.816;2023-08-01T10:28:49;6.28;;;2.13;;
22764;SDS011;11549;50.852;3.816;2023-08-01T10:31:20;6.97;;;1.77;;
22764;SDS011;11549;50.852;3.816;2023-08-01T10:33:49;8.30;;;2.30;;
22764;SDS011;11549;50.852;3.816;2023-08-01T10:36:19;6.57;;;1.92;;
22764;SDS011;11549;50.852;3.816;2023-08-01T10:38:49;7.82;;;1.80;;
22764;SDS011;11549;50.852;3.816;2023-08-01T10:41:19;7.00;;;1.80;;
22764;SDS011;11549;50.852;3.816;2023-08-01T10:43:49;5.70;;;1.52;;
22764;SDS011;11549;50.852;3.816;2023-08-01T10:46:17;6.97;;;1.98;;
22764;SDS011;11549;50.852;3.816;2023-08-01T10:48:48;4.55;;;1.58;;
22764;SDS011;11549;50.852;3.816;2023-08-01T10:51:17;7.55;;;1.88;;
22764;SDS011;11549;50.852;3.816;2023-08-01T10:53:45;6.85;;;1.88;;
22764;SDS011;11549;50.852;3.816;2023-08-01T10:56:18;5.80;;;1.60;;
22764;SDS011;11549;50.852;3.816;2023-08-01T10:58:47;5.45;;;1.50;;
22764;SDS011;11549;50.852;3.816;2023-08-01T11:01:16;6.18;;;1.90;;
22764;SDS011;11549;50.852;3.816;2023-08-01T11:03:45;5.05;;;1.35;;
22764;SDS011;11549;50.852;3.816;2023-08-01T11:06:14;4.15;;;1.30;;
22764;SDS011;11549;50.852;3.816;2023-08-01T11:08:42;5.18;;;1.42;;
22764;SDS011;11549;50.852;3.816;2023-08-01T11:11:11;7.78;;;1.85;;
22764;SDS011;11549;50.852;3.816;2023-08-01T11:13:49;5.63;;;1.65;;
22764;SDS011;11549;50.852;3.816;2023-08-01T11:16:18;6.25;;;1.65;;
22764;SDS011;11549;50.852;3.816;2023-08-01T11:18:48;5.78;;;1.73;;
22764;SDS011;11549;50.852;3.816;2023-08-01T11:21:24;5.18;;;1.42;;
22764;SDS011;11549;50.852;3.816;2023-08-01T11:23:54;6.20;;;1.70;;
22764;SDS011;11549;50.852;3.816;2023-08-01T11:26:23;4.95;;;1.52;;
22764;SDS011;11549;50.852;3.816;2023-08-01T11:28:51;5.72;;;1.42;;
22764;SDS011;11549;50.852;3.816;2023-08-01T11:31:20;4.75;;;1.25;;
22764;SDS011;11549;50.852;3.816;2023-08-01T11:33:56;4.68;;;1.50;;
22764;SDS011;11549;50.852;3.816;2023-08-01T11:36:25;5.15;;;1.40;;
22764;SDS011;11549;50.852;3.816;2023-08-01T11:38:55;7.28;;;1.35;;
22764;SDS011;11549;50.852;3.816;2023-08-01T11:41:24;5.90;;;1.60;;
22764;SDS011;11549;50.852;3.816;2023-08-01T11:43:55;5.18;;;1.45;;
22764;SDS011;11549;50.852;3.816;2023-08-01T11:46:30;3.83;;;1.50;;
22764;SDS011;11549;50.852;3.816;2023-08-01T11:49:01;5.10;;;1.20;;
22764;SDS011;11549;50.852;3.816;2023-08-01T11:51:29;5.18;;;1.50;;
22764;SDS011;11549;50.852;3.816;2023-08-01T11:53:58;4.88;;;1.42;;
22764;SDS011;11549;50.852;3.816;2023-08-01T11:56:27;6.45;;;1.70;;
22764;SDS011;11549;50.852;3.816;2023-08-01T11:58:56;5.70;;;1.35;;
22764;SDS011;11549;50.852;3.816;2023-08-01T12:01:25;5.93;;;1.48;;
22764;SDS011;11549;50.852;3.816;2023-08-01T12:03:54;5.95;;;1.48;;
22764;SDS011;11549;50.852;3.816;2023-08-01T12:06:26;6.70;;;1.80;;
22764;SDS011;11549;50.852;3.816;2023-08-01T12:09:05;8.48;;;1.98;;
22764;SDS011;11549;50.852;3.816;2023-08-01T12:11:35;6.38;;;1.48;;
22764;SDS011;11549;50.852;3.816;2023-08-01T12:14:03;6.78;;;1.73;;
22764;SDS011;11549;50.852;3.816;2023-08-01T12:16:34;5.68;;;1.70;;
22764;SDS011;11549;50.852;3.816;2023-08-01T12:19:03;6.55;;;1.77;;
22764;SDS011;11549;50.852;3.816;2023-08-01T12:21:33;5.28;;;1.77;;
22764;SDS011;11549;50.852;3.816;2023-08-01T12:24:02;6.47;;;2.03;;
22764;SDS011;11549;50.852;3.816;2023-08-01T12:26:30;5.85;;;1.77;;
22764;SDS011;11549;50.852;3.816;2023-08-01T12:28:59;7.82;;;1.73;;
22764;SDS011;11549;50.852;3.816;2023-08-01T12:31:27;6.25;;;1.92;;
22764;SDS011;11549;50.852;3.816;2023-08-01T12:33:56;7.55;;;1.90;;
22764;SDS011;11549;50.852;3.816;2023-08-01T12:36:25;6.18;;;2.10;;
22764;SDS011;11549;50.852;3.816;2023-08-01T12:38:56;9.02;;;2.20;;
22764;SDS011;11549;50.852;3.816;2023-08-01T12:41:24;6.90;;;2.03;;
22764;SDS011;11549;50.852;3.816;2023-08-01T12:43:53;7.18;;;1.80;;
22764;SDS011;11549;50.852;3.816;2023-08-01T12:46:21;9.65;;;2.08;;
22764;SDS011;11549;50.852;3.816;2023-08-01T12:48:49;5.95;;;1.92;;
22764;SDS011;11549;50.852;3.816;2023-08-01T12:51:17;8.43;;;2.20;;
22764;SDS011;11549;50.852;3.816;2023-08-01T12:53:46;5.07;;;2.00;;
22764;SDS011;11549;50.852;3.816;2023-08-01T12:56:16;7.53;;;2.05;;
22764;SDS011;11549;50.852;3.816;2023-08-01T12:58:44;8.15;;;2.45;;
22764;SDS011;11549;50.852;3.816;2023-08-01T13:01:12;9.45;;;2.33;;
22764;SDS011;11549;50.852;3.816;2023-08-01T13:03:41;8.23;;;2.20;;
22764;SDS011;11549;50.852;3.816;2023-08-01T13:06:10;7.45;;;2.38;;
22764;SDS011;11549;50.852;3.816;2023-08-01T13:08:39;6.93;;;2.05;;
22764;SDS011;11549;50.852;3.816;2023-08-01T13:11:11;7.93;;;1.90;;
22764;SDS011;11549;50.852;3.816;2023-08-01T13:13:42;7.90;;;2.38;;
22764;SDS011;11549;50.852;3.816;2023-08-01T13:16:11;6.47;;;1.70;;
22764;SDS011;11549;50.852;3.816;2023-08-01T13:18:39;5.75;;;1.80;;
22764;SDS011;11549;50.852;3.816;2023-08-01T13:21:11;5.15;;;1.70;;
22764;SDS011;11549;50.852;3.816;2023-08-01T13:23:40;4.88;;;1.75;;
22764;SDS011;11549;50.852;3.816;2023-08-01T13:26:08;6.88;;;1.70;;
22764;SDS011;11549;50.852;3.816;2023-08-01T13:28:36;5.15;;;1.42;;
22764;SDS011;11549;50.852;3.816;2023-08-01T13:31:06;5.40;;;1.50;;
22764;SDS011;11549;50.852;3.816;2023-08-01T13:33:35;5.90;;;1.45;;
22764;SDS011;11549;50.852;3.816;2023-08-01T13:36:03;6.38;;;1.80;;
22764;SDS011;11549;50.852;3.816;2023-08-01T13:38:33;4.93;;;1.38;;
22764;SDS011;11549;50.852;3.816;2023-08-01T13:41:01;6.05;;;1.70;;
22764;SDS011;11549;50.852;3.816;2023-08-01T13:43:32;10.35;;;1.95;;
22764;SDS011;11549;50.852;3.816;2023-08-01T13:46:00;8.07;;;1.65;;
22764;SDS011;11549;50.852;3.816;2023-08-01T13:48:34;8.50;;;1.70;;
22764;SDS011;11549;50.852;3.816;2023-08-01T13:51:02;6.78;;;1.52;;
22764;SDS011;11549;50.852;3.816;2023-08-01T13:53:30;7.85;;;1.73;;
22764;SDS011;11549;50.852;3.816;2023-08-01T13:56:00;7.78;;;1.80;;
22764;SDS011;11549;50.852;3.816;2023-08-01T13:58:28;9.23;;;2.10;;
22764;SDS011;11549;50.852;3.816;2023-08-01T14:01:01;7.28;;;2.30;;
22764;SDS011;11549;50.852;3.816;2023-08-01T14:03:29;6.60;;;1.73;;
22764;SDS011;11549;50.852;3.816;2023-08-01T14:06:04;7.60;;;1.80;;
22764;SDS011;11549;50.852;3.816;2023-08-01T14:08:33;7.65;;;2.10;;
22764;SDS011;11549;50.852;3.816;2023-08-01T14:11:02;8.02;;;1.90;;
22764;SDS011;11549;50.852;3.816;2023-08-01T14:13:31;8.52;;;2.25;;
22764;SDS011;11549;50.852;3.816;2023-08-01T14:16:00;20.45;;;11.95;;
22764;SDS011;11549;50.852;3.816;2023-08-01T14:18:29;9.15;;;3.00;;
22764;SDS011;11549;50.852;3.816;2023-08-01T14:20:57;9.13;;;2.47;;
22764;SDS011;11549;50.852;3.816;2023-08-01T14:23:28;9.18;;;2.20;;
22764;SDS011;11549;50.852;3.816;2023-08-01T14:25:57;13.00;;;2.88;;
22764;SDS011;11549;50.852;3.816;2023-08-01T14:28:26;8.00;;;2.33;;
22764;SDS011;11549;50.852;3.816;2023-08-01T14:30:54;11.15;;;2.67;;
22764;SDS011;11549;50.852;3.816;2023-08-01T14:33:23;9.98;;;2.42;;
22764;SDS011;11549;50.852;3.816;2023-08-01T14:35:51;7.43;;;2.58;;
22764;SDS011;11549;50.852;3.816;2023-08-01T14:38:19;11.13;;;2.40;;
22764;SDS011;11549;50.852;3.816;2023-08-01T14:40:49;9.68;;;2.40;;
22764;SDS011;11549;50.852;3.816;2023-08-01T14:43:39;8.57;;;1.92;;
22764;SDS011;11549;50.852;3.816;2023-08-01T14:46:07;10.10;;;2.38;;
22764;SDS011;11549;50.852;3.816;2023-08-01T14:48:36;8.70;;;2.67;;
22764;SDS011;11549;50.852;3.816;2023-08-01T14:51:05;7.97;;;2.67;;